sensor_id;sensor_type;location;lat;lon;timestamp;temperature;humidity
37340;DHT22;23223;51.006;7.610;2022-08-16T00:00:17;16.50;99.90
37340;DHT22;23223;51.006;7.610;2022-08-16T00:02:43;16.50;99.90
37340;DHT22;23223;51.006;7.610;2022-08-16T00:05:10;16.60;99.90
37340;DHT22;23223;51.006;7.610;2022-08-16T00:07:36;16.70;99.90
37340;DHT22;23223;51.006;7.610;2022-08-16T00:10:04;16.90;99.90
37340;DHT22;23223;51.006;7.610;2022-08-16T00:12:30;16.90;99.90
37340;DHT22;23223;51.006;7.610;2022-08-16T00:14:58;16.90;99.90
37340;DHT22;23223;51.006;7.610;2022-08-16T00:17:24;17.00;99.90
37340;DHT22;23223;51.006;7.610;2022-08-16T00:19:50;17.00;99.90
37340;DHT22;23223;51.006;7.610;2022-08-16T00:22:16;17.20;99.90
37340;DHT22;23223;51.006;7.610;2022-08-16T00:24:42;17.10;99.90
37340;DHT22;23223;51.006;7.610;2022-08-16T00:27:08;16.90;99.90
37340;DHT22;23223;51.006;7.610;2022-08-16T00:29:34;16.70;99.90
37340;DHT22;23223;51.006;7.610;2022-08-16T00:32:02;16.70;99.90
37340;DHT22;23223;51.006;7.610;2022-08-16T00:34:28;17.00;99.90
37340;DHT22;23223;51.006;7.610;2022-08-16T00:36:54;17.10;99.90
37340;DHT22;23223;51.006;7.610;2022-08-16T00:39:19;17.00;99.90
37340;DHT22;23223;51.006;7.610;2022-08-16T00:41:47;16.80;99.90
37340;DHT22;23223;51.006;7.610;2022-08-16T00:44:13;16.60;99.90
37340;DHT22;23223;51.006;7.610;2022-08-16T00:46:44;16.50;99.90
37340;DHT22;23223;51.006;7.610;2022-08-16T00:49:13;16.40;99.90
37340;DHT22;23223;51.006;7.610;2022-08-16T00:51:39;16.30;99.90
37340;DHT22;23223;51.006;7.610;2022-08-16T00:54:06;16.20;99.90
37340;DHT22;23223;51.006;7.610;2022-08-16T00:56:35;16.20;99.90
37340;DHT22;23223;51.006;7.610;2022-08-16T00:59:02;16.40;99.90
37340;DHT22;23223;51.006;7.610;2022-08-16T01:01:29;16.40;99.90
37340;DHT22;23223;51.006;7.610;2022-08-16T01:03:57;16.30;99.90
37340;DHT22;23223;51.006;7.610;2022-08-16T01:06:25;16.20;99.90
37340;DHT22;23223;51.006;7.610;2022-08-16T01:08:52;16.30;99.90
37340;DHT22;23223;51.006;7.610;2022-08-16T01:11:18;16.40;99.90
37340;DHT22;23223;51.006;7.610;2022-08-16T01:13:44;16.40;99.90
37340;DHT22;23223;51.006;7.610;2022-08-16T01:16:19;16.30;99.90
37340;DHT22;23223;51.006;7.610;2022-08-16T01:24:22;16.00;99.90
37340;DHT22;23223;51.006;7.610;2022-08-16T01:26:50;16.20;99.90
37340;DHT22;23223;51.006;7.610;2022-08-16T01:29:22;16.40;99.90
37340;DHT22;23223;51.006;7.610;2022-08-16T01:31:48;16.60;99.90
37340;DHT22;23223;51.006;7.610;2022-08-16T01:34:16;16.60;99.90
37340;DHT22;23223;51.006;7.610;2022-08-16T01:36:42;16.60;99.90
37340;DHT22;23223;51.006;7.610;2022-08-16T01:39:14;16.70;99.90
37340;DHT22;23223;51.006;7.610;2022-08-16T01:41:41;16.70;99.90
37340;DHT22;23223;51.006;7.610;2022-08-16T01:44:06;16.70;99.90
37340;DHT22;23223;51.006;7.610;2022-08-16T01:46:50;16.60;99.90
37340;DHT22;23223;51.006;7.610;2022-08-16T01:49:27;16.60;99.90
37340;DHT22;23223;51.006;7.610;2022-08-16T01:51:57;16.90;99.90
37340;DHT22;23223;51.006;7.610;2022-08-16T01:54:24;17.10;99.90
37340;DHT22;23223;51.006;7.610;2022-08-16T01:56:50;17.10;99.90
37340;DHT22;23223;51.006;7.610;2022-08-16T01:59:17;16.90;99.90
37340;DHT22;23223;51.006;7.610;2022-08-16T02:01:44;16.80;99.90
37340;DHT22;23223;51.006;7.610;2022-08-16T02:04:10;16.80;99.90
37340;DHT22;23223;51.006;7.610;2022-08-16T02:06:37;16.90;99.90
37340;DHT22;23223;51.006;7.610;2022-08-16T02:09:03;17.00;99.90
37340;DHT22;23223;51.006;7.610;2022-08-16T02:11:28;16.90;99.90
37340;DHT22;23223;51.006;7.610;2022-08-16T02:13:54;16.60;99.90
37340;DHT22;23223;51.006;7.610;2022-08-16T02:16:20;16.50;99.90
37340;DHT22;23223;51.006;7.610;2022-08-16T02:18:46;16.40;99.90
37340;DHT22;23223;51.006;7.610;2022-08-16T02:21:13;16.20;99.90
37340;DHT22;23223;51.006;7.610;2022-08-16T02:23:40;16.10;99.90
37340;DHT22;23223;51.006;7.610;2022-08-16T02:26:06;16.10;99.90
37340;DHT22;23223;51.006;7.610;2022-08-16T02:28:32;16.40;99.90
37340;DHT22;23223;51.006;7.610;2022-08-16T02:31:01;16.80;99.90
37340;DHT22;23223;51.006;7.610;2022-08-16T02:33:27;17.10;99.90
37340;DHT22;23223;51.006;7.610;2022-08-16T02:35:53;17.30;99.90
37340;DHT22;23223;51.006;7.610;2022-08-16T02:38:18;17.40;99.90
37340;DHT22;23223;51.006;7.610;2022-08-16T02:40:44;17.30;99.90
37340;DHT22;23223;51.006;7.610;2022-08-16T02:43:10;17.30;99.90
37340;DHT22;23223;51.006;7.610;2022-08-16T02:45:35;17.20;99.90
37340;DHT22;23223;51.006;7.610;2022-08-16T02:48:01;17.10;99.90
37340;DHT22;23223;51.006;7.610;2022-08-16T02:50:27;16.90;99.90
37340;DHT22;23223;51.006;7.610;2022-08-16T02:52:53;16.60;99.90
37340;DHT22;23223;51.006;7.610;2022-08-16T02:55:19;16.60;99.90
37340;DHT22;23223;51.006;7.610;2022-08-16T02:57:45;16.40;99.90
37340;DHT22;23223;51.006;7.610;2022-08-16T03:00:11;16.30;99.90
37340;DHT22;23223;51.006;7.610;2022-08-16T03:02:39;16.20;99.90
37340;DHT22;23223;51.006;7.610;2022-08-16T03:05:06;16.00;99.90
37340;DHT22;23223;51.006;7.610;2022-08-16T03:07:33;15.90;99.90
37340;DHT22;23223;51.006;7.610;2022-08-16T03:09:58;16.00;99.90
37340;DHT22;23223;51.006;7.610;2022-08-16T03:12:24;16.00;99.90
37340;DHT22;23223;51.006;7.610;2022-08-16T03:14:50;15.80;99.90
37340;DHT22;23223;51.006;7.610;2022-08-16T03:17:17;15.60;99.90
37340;DHT22;23223;51.006;7.610;2022-08-16T03:19:42;15.60;99.90
37340;DHT22;23223;51.006;7.610;2022-08-16T03:22:08;15.50;99.90
37340;DHT22;23223;51.006;7.610;2022-08-16T03:24:34;15.40;99.90
37340;DHT22;23223;51.006;7.610;2022-08-16T03:27:01;15.40;99.90
37340;DHT22;23223;51.006;7.610;2022-08-16T03:29:30;15.20;99.90
37340;DHT22;23223;51.006;7.610;2022-08-16T03:31:57;15.20;99.90
37340;DHT22;23223;51.006;7.610;2022-08-16T03:34:23;15.50;99.90
37340;DHT22;23223;51.006;7.610;2022-08-16T03:36:48;15.60;99.90
37340;DHT22;23223;51.006;7.610;2022-08-16T03:39:14;15.60;99.90
37340;DHT22;23223;51.006;7.610;2022-08-16T03:41:39;15.40;99.90
37340;DHT22;23223;51.006;7.610;2022-08-16T03:44:06;15.20;99.90
37340;DHT22;23223;51.006;7.610;2022-08-16T03:46:35;15.00;99.90
37340;DHT22;23223;51.006;7.610;2022-08-16T03:49:00;14.90;99.90
37340;DHT22;23223;51.006;7.610;2022-08-16T03:51:26;14.80;99.90
37340;DHT22;23223;51.006;7.610;2022-08-16T03:53:52;14.60;99.90
37340;DHT22;23223;51.006;7.610;2022-08-16T03:56:18;14.70;99.90
37340;DHT22;23223;51.006;7.610;2022-08-16T03:58:44;15.00;99.90
37340;DHT22;23223;51.006;7.610;2022-08-16T04:01:09;15.20;99.90
37340;DHT22;23223;51.006;7.610;2022-08-16T04:03:36;15.40;99.90
37340;DHT22;23223;51.006;7.610;2022-08-16T04:06:02;15.50;99.90
37340;DHT22;23223;51.006;7.610;2022-08-16T04:08:28;15.30;99.90
37340;DHT22;23223;51.006;7.610;2022-08-16T04:10:56;15.10;99.90
37340;DHT22;23223;51.006;7.610;2022-08-16T04:13:22;14.90;99.90
37340;DHT22;23223;51.006;7.610;2022-08-16T04:15:48;14.80;99.90
37340;DHT22;23223;51.006;7.610;2022-08-16T04:18:13;14.90;99.90
37340;DHT22;23223;51.006;7.610;2022-08-16T04:20:40;15.20;99.90
37340;DHT22;23223;51.006;7.610;2022-08-16T04:23:06;15.30;99.90
37340;DHT22;23223;51.006;7.610;2022-08-16T04:25:34;15.10;99.90
37340;DHT22;23223;51.006;7.610;2022-08-16T04:28:00;15.10;99.90
37340;DHT22;23223;51.006;7.610;2022-08-16T04:30:25;15.20;99.90
37340;DHT22;23223;51.006;7.610;2022-08-16T04:32:52;15.10;99.90
37340;DHT22;23223;51.006;7.610;2022-08-16T04:35:21;15.00;99.90
37340;DHT22;23223;51.006;7.610;2022-08-16T04:37:48;14.80;99.90
37340;DHT22;23223;51.006;7.610;2022-08-16T04:40:16;14.70;99.90
37340;DHT22;23223;51.006;7.610;2022-08-16T04:42:42;14.60;99.90
37340;DHT22;23223;51.006;7.610;2022-08-16T04:45:12;14.60;99.90
37340;DHT22;23223;51.006;7.610;2022-08-16T04:47:38;14.80;99.90
37340;DHT22;23223;51.006;7.610;2022-08-16T04:50:13;15.30;99.90
37340;DHT22;23223;51.006;7.610;2022-08-16T04:52:39;15.70;99.90
37340;DHT22;23223;51.006;7.610;2022-08-16T04:55:10;15.90;99.90
37340;DHT22;23223;51.006;7.610;2022-08-16T04:57:38;15.70;99.90
37340;DHT22;23223;51.006;7.610;2022-08-16T05:00:11;15.60;99.90
37340;DHT22;23223;51.006;7.610;2022-08-16T05:02:38;15.60;99.90
37340;DHT22;23223;51.006;7.610;2022-08-16T05:05:04;15.70;99.90
37340;DHT22;23223;51.006;7.610;2022-08-16T05:07:30;15.70;99.90
37340;DHT22;23223;51.006;7.610;2022-08-16T05:09:55;15.70;99.90
37340;DHT22;23223;51.006;7.610;2022-08-16T05:12:21;16.00;99.90
37340;DHT22;23223;51.006;7.610;2022-08-16T05:14:46;16.40;99.90
37340;DHT22;23223;51.006;7.610;2022-08-16T05:17:12;16.60;99.90
37340;DHT22;23223;51.006;7.610;2022-08-16T05:19:37;16.70;99.90
37340;DHT22;23223;51.006;7.610;2022-08-16T05:22:03;16.60;99.90
37340;DHT22;23223;51.006;7.610;2022-08-16T05:24:29;16.80;99.90
37340;DHT22;23223;51.006;7.610;2022-08-16T05:26:54;17.10;99.90
37340;DHT22;23223;51.006;7.610;2022-08-16T05:29:20;17.30;99.90
37340;DHT22;23223;51.006;7.610;2022-08-16T05:31:46;17.30;99.90
37340;DHT22;23223;51.006;7.610;2022-08-16T05:34:11;17.40;99.90
37340;DHT22;23223;51.006;7.610;2022-08-16T05:36:37;17.70;99.90
37340;DHT22;23223;51.006;7.610;2022-08-16T05:39:05;17.90;99.90
37340;DHT22;23223;51.006;7.610;2022-08-16T05:41:31;18.20;99.90
37340;DHT22;23223;51.006;7.610;2022-08-16T05:43:57;18.60;99.90
37340;DHT22;23223;51.006;7.610;2022-08-16T05:46:24;18.50;99.90
37340;DHT22;23223;51.006;7.610;2022-08-16T05:48:50;18.40;99.90
37340;DHT22;23223;51.006;7.610;2022-08-16T05:51:15;18.40;99.90
37340;DHT22;23223;51.006;7.610;2022-08-16T05:53:41;18.50;99.90
37340;DHT22;23223;51.006;7.610;2022-08-16T05:56:07;18.40;99.90
37340;DHT22;23223;51.006;7.610;2022-08-16T05:58:32;18.40;99.90
37340;DHT22;23223;51.006;7.610;2022-08-16T06:00:58;18.60;99.90
37340;DHT22;23223;51.006;7.610;2022-08-16T06:03:23;18.70;99.90
37340;DHT22;23223;51.006;7.610;2022-08-16T06:05:49;18.70;99.90
37340;DHT22;23223;51.006;7.610;2022-08-16T06:08:14;18.60;99.90
37340;DHT22;23223;51.006;7.610;2022-08-16T06:10:40;18.50;99.90
37340;DHT22;23223;51.006;7.610;2022-08-16T06:13:05;18.50;99.90
37340;DHT22;23223;51.006;7.610;2022-08-16T06:15:31;18.70;99.90
37340;DHT22;23223;51.006;7.610;2022-08-16T06:17:57;19.00;99.90
37340;DHT22;23223;51.006;7.610;2022-08-16T06:20:25;19.60;99.90
37340;DHT22;23223;51.006;7.610;2022-08-16T06:22:53;20.00;99.90
37340;DHT22;23223;51.006;7.610;2022-08-16T06:25:21;20.00;99.90
37340;DHT22;23223;51.006;7.610;2022-08-16T06:27:47;20.10;99.90
37340;DHT22;23223;51.006;7.610;2022-08-16T06:30:13;20.40;99.90
37340;DHT22;23223;51.006;7.610;2022-08-16T06:32:39;20.60;99.90
37340;DHT22;23223;51.006;7.610;2022-08-16T06:35:06;21.20;99.90
37340;DHT22;23223;51.006;7.610;2022-08-16T06:37:32;21.70;99.90
37340;DHT22;23223;51.006;7.610;2022-08-16T06:39:58;22.10;99.90
37340;DHT22;23223;51.006;7.610;2022-08-16T06:42:23;22.40;99.90
37340;DHT22;23223;51.006;7.610;2022-08-16T06:44:49;22.70;99.90
37340;DHT22;23223;51.006;7.610;2022-08-16T06:47:15;23.20;99.90
37340;DHT22;23223;51.006;7.610;2022-08-16T06:49:40;23.60;99.90
37340;DHT22;23223;51.006;7.610;2022-08-16T06:52:06;24.00;99.90
37340;DHT22;23223;51.006;7.610;2022-08-16T06:54:33;24.30;99.90
37340;DHT22;23223;51.006;7.610;2022-08-16T06:56:59;24.60;99.90
37340;DHT22;23223;51.006;7.610;2022-08-16T06:59:25;25.00;99.90
37340;DHT22;23223;51.006;7.610;2022-08-16T07:01:50;25.20;99.90
37340;DHT22;23223;51.006;7.610;2022-08-16T07:04:17;25.40;99.90
37340;DHT22;23223;51.006;7.610;2022-08-16T07:06:43;25.50;99.90
37340;DHT22;23223;51.006;7.610;2022-08-16T07:09:10;25.90;99.90
37340;DHT22;23223;51.006;7.610;2022-08-16T07:11:36;26.40;99.90
37340;DHT22;23223;51.006;7.610;2022-08-16T07:14:01;26.90;99.90
37340;DHT22;23223;51.006;7.610;2022-08-16T07:16:27;27.30;99.90
37340;DHT22;23223;51.006;7.610;2022-08-16T07:18:52;27.30;99.90
37340;DHT22;23223;51.006;7.610;2022-08-16T07:21:18;27.40;99.90
37340;DHT22;23223;51.006;7.610;2022-08-16T07:23:44;27.40;99.90
37340;DHT22;23223;51.006;7.610;2022-08-16T07:26:14;27.50;99.90
37340;DHT22;23223;51.006;7.610;2022-08-16T07:28:43;27.70;99.90
37340;DHT22;23223;51.006;7.610;2022-08-16T07:31:09;28.30;99.90
37340;DHT22;23223;51.006;7.610;2022-08-16T07:33:35;28.50;99.90
37340;DHT22;23223;51.006;7.610;2022-08-16T07:36:03;28.40;99.90
37340;DHT22;23223;51.006;7.610;2022-08-16T07:38:29;28.20;99.90
37340;DHT22;23223;51.006;7.610;2022-08-16T07:40:55;28.20;99.90
37340;DHT22;23223;51.006;7.610;2022-08-16T07:43:22;28.40;99.90
37340;DHT22;23223;51.006;7.610;2022-08-16T07:45:48;27.80;99.90
37340;DHT22;23223;51.006;7.610;2022-08-16T07:48:14;28.30;99.90
37340;DHT22;23223;51.006;7.610;2022-08-16T07:50:41;28.70;99.90
37340;DHT22;23223;51.006;7.610;2022-08-16T07:53:07;28.80;99.90
37340;DHT22;23223;51.006;7.610;2022-08-16T07:55:32;28.70;99.90
37340;DHT22;23223;51.006;7.610;2022-08-16T07:57:58;29.00;99.90
37340;DHT22;23223;51.006;7.610;2022-08-16T08:00:23;29.00;99.90
37340;DHT22;23223;51.006;7.610;2022-08-16T08:02:49;29.10;99.90
37340;DHT22;23223;51.006;7.610;2022-08-16T08:05:15;29.20;99.90
37340;DHT22;23223;51.006;7.610;2022-08-16T08:07:40;29.40;99.90
37340;DHT22;23223;51.006;7.610;2022-08-16T08:10:07;29.70;99.90
37340;DHT22;23223;51.006;7.610;2022-08-16T08:12:33;29.30;99.90
37340;DHT22;23223;51.006;7.610;2022-08-16T08:14:59;29.20;99.90
37340;DHT22;23223;51.006;7.610;2022-08-16T08:17:25;29.60;99.90
37340;DHT22;23223;51.006;7.610;2022-08-16T08:19:50;29.60;99.90
37340;DHT22;23223;51.006;7.610;2022-08-16T08:22:16;29.90;99.90
37340;DHT22;23223;51.006;7.610;2022-08-16T08:24:42;30.10;99.90
37340;DHT22;23223;51.006;7.610;2022-08-16T08:27:07;30.00;99.90
37340;DHT22;23223;51.006;7.610;2022-08-16T08:29:35;30.10;99.90
37340;DHT22;23223;51.006;7.610;2022-08-16T08:32:01;30.10;99.90
37340;DHT22;23223;51.006;7.610;2022-08-16T08:34:27;30.00;99.90
37340;DHT22;23223;51.006;7.610;2022-08-16T08:36:53;30.20;99.90
37340;DHT22;23223;51.006;7.610;2022-08-16T08:39:19;30.20;99.90
37340;DHT22;23223;51.006;7.610;2022-08-16T08:41:45;30.00;99.90
37340;DHT22;23223;51.006;7.610;2022-08-16T08:44:12;30.20;99.90
37340;DHT22;23223;51.006;7.610;2022-08-16T08:46:38;30.60;99.90
37340;DHT22;23223;51.006;7.610;2022-08-16T08:49:04;30.70;99.90
37340;DHT22;23223;51.006;7.610;2022-08-16T08:51:33;31.00;99.90
37340;DHT22;23223;51.006;7.610;2022-08-16T08:53:59;31.10;99.90
37340;DHT22;23223;51.006;7.610;2022-08-16T08:56:25;31.10;99.90
37340;DHT22;23223;51.006;7.610;2022-08-16T08:58:51;31.50;99.90
37340;DHT22;23223;51.006;7.610;2022-08-16T09:01:21;31.60;99.90
37340;DHT22;23223;51.006;7.610;2022-08-16T09:03:47;31.70;99.90
37340;DHT22;23223;51.006;7.610;2022-08-16T09:06:13;31.90;99.90
37340;DHT22;23223;51.006;7.610;2022-08-16T09:08:38;32.00;99.40
37340;DHT22;23223;51.006;7.610;2022-08-16T09:11:04;32.30;99.80
37340;DHT22;23223;51.006;7.610;2022-08-16T09:13:30;32.30;99.50
37340;DHT22;23223;51.006;7.610;2022-08-16T09:15:57;32.60;98.20
37340;DHT22;23223;51.006;7.610;2022-08-16T09:18:23;32.80;97.80
37340;DHT22;23223;51.006;7.610;2022-08-16T09:20:50;32.80;97.20
37340;DHT22;23223;51.006;7.610;2022-08-16T09:23:20;33.10;96.20
37340;DHT22;23223;51.006;7.610;2022-08-16T09:25:46;33.20;96.20
37340;DHT22;23223;51.006;7.610;2022-08-16T09:28:13;33.30;95.40
37340;DHT22;23223;51.006;7.610;2022-08-16T09:30:39;33.40;94.20
37340;DHT22;23223;51.006;7.610;2022-08-16T09:33:05;33.30;93.70
37340;DHT22;23223;51.006;7.610;2022-08-16T09:35:32;33.40;93.70
37340;DHT22;23223;51.006;7.610;2022-08-16T09:37:57;33.50;93.30
37340;DHT22;23223;51.006;7.610;2022-08-16T09:40:23;33.80;92.70
37340;DHT22;23223;51.006;7.610;2022-08-16T09:42:50;33.90;93.20
37340;DHT22;23223;51.006;7.610;2022-08-16T09:45:18;33.30;91.90
37340;DHT22;23223;51.006;7.610;2022-08-16T09:47:45;33.50;92.60
37340;DHT22;23223;51.006;7.610;2022-08-16T09:50:13;34.10;91.80
37340;DHT22;23223;51.006;7.610;2022-08-16T09:52:38;34.40;91.60
37340;DHT22;23223;51.006;7.610;2022-08-16T09:55:07;34.60;90.00
37340;DHT22;23223;51.006;7.610;2022-08-16T09:57:38;34.60;89.10
37340;DHT22;23223;51.006;7.610;2022-08-16T10:00:09;34.50;89.00
37340;DHT22;23223;51.006;7.610;2022-08-16T10:02:35;34.40;87.30
37340;DHT22;23223;51.006;7.610;2022-08-16T10:05:03;34.80;87.10
37340;DHT22;23223;51.006;7.610;2022-08-16T10:07:30;35.00;85.70
37340;DHT22;23223;51.006;7.610;2022-08-16T10:09:56;35.20;85.60
37340;DHT22;23223;51.006;7.610;2022-08-16T10:12:26;35.30;82.40
37340;DHT22;23223;51.006;7.610;2022-08-16T10:15:14;35.50;82.10
37340;DHT22;23223;51.006;7.610;2022-08-16T10:17:40;35.30;81.70
37340;DHT22;23223;51.006;7.610;2022-08-16T10:20:08;35.40;78.70
37340;DHT22;23223;51.006;7.610;2022-08-16T10:22:36;35.70;78.50
37340;DHT22;23223;51.006;7.610;2022-08-16T10:25:02;36.10;76.70
37340;DHT22;23223;51.006;7.610;2022-08-16T10:27:28;35.90;75.40
37340;DHT22;23223;51.006;7.610;2022-08-16T10:29:53;35.20;75.40
37340;DHT22;23223;51.006;7.610;2022-08-16T10:32:19;35.00;78.30
37340;DHT22;23223;51.006;7.610;2022-08-16T10:34:45;34.80;77.80
37340;DHT22;23223;51.006;7.610;2022-08-16T10:37:11;35.10;75.80
37340;DHT22;23223;51.006;7.610;2022-08-16T10:39:37;35.40;77.80
37340;DHT22;23223;51.006;7.610;2022-08-16T10:42:05;35.80;74.50
37340;DHT22;23223;51.006;7.610;2022-08-16T10:44:30;35.80;73.10
37340;DHT22;23223;51.006;7.610;2022-08-16T10:46:56;36.00;71.00
37340;DHT22;23223;51.006;7.610;2022-08-16T10:49:22;35.70;69.00
37340;DHT22;23223;51.006;7.610;2022-08-16T10:51:48;36.00;72.30
37340;DHT22;23223;51.006;7.610;2022-08-16T10:54:13;36.50;70.60
37340;DHT22;23223;51.006;7.610;2022-08-16T10:56:39;36.10;70.40
37340;DHT22;23223;51.006;7.610;2022-08-16T10:59:04;35.90;70.40
37340;DHT22;23223;51.006;7.610;2022-08-16T11:01:30;35.90;70.20
37340;DHT22;23223;51.006;7.610;2022-08-16T11:03:56;36.20;69.90
37340;DHT22;23223;51.006;7.610;2022-08-16T11:06:22;36.10;68.70
37340;DHT22;23223;51.006;7.610;2022-08-16T11:08:47;36.10;68.00
37340;DHT22;23223;51.006;7.610;2022-08-16T11:11:13;36.00;71.40
37340;DHT22;23223;51.006;7.610;2022-08-16T11:13:40;35.90;68.50
37340;DHT22;23223;51.006;7.610;2022-08-16T11:16:07;36.30;67.00
37340;DHT22;23223;51.006;7.610;2022-08-16T11:18:33;36.60;69.50
37340;DHT22;23223;51.006;7.610;2022-08-16T11:20:59;37.10;66.60
37340;DHT22;23223;51.006;7.610;2022-08-16T11:23:26;36.70;65.50
37340;DHT22;23223;51.006;7.610;2022-08-16T11:25:53;36.40;64.40
37340;DHT22;23223;51.006;7.610;2022-08-16T11:28:19;36.40;65.10
37340;DHT22;23223;51.006;7.610;2022-08-16T11:30:45;36.10;64.60
37340;DHT22;23223;51.006;7.610;2022-08-16T11:33:11;35.10;64.60
37340;DHT22;23223;51.006;7.610;2022-08-16T11:35:39;34.00;67.50
37340;DHT22;23223;51.006;7.610;2022-08-16T11:38:12;33.50;67.30
37340;DHT22;23223;51.006;7.610;2022-08-16T11:40:48;33.10;65.80
37340;DHT22;23223;51.006;7.610;2022-08-16T11:43:18;32.90;66.10
37340;DHT22;23223;51.006;7.610;2022-08-16T11:45:46;33.40;65.30
37340;DHT22;23223;51.006;7.610;2022-08-16T11:48:12;34.20;65.50
37340;DHT22;23223;51.006;7.610;2022-08-16T11:50:39;35.00;63.80
37340;DHT22;23223;51.006;7.610;2022-08-16T11:53:06;36.10;65.70
37340;DHT22;23223;51.006;7.610;2022-08-16T11:55:32;37.10;65.30
37340;DHT22;23223;51.006;7.610;2022-08-16T11:57:59;37.10;59.20
37340;DHT22;23223;51.006;7.610;2022-08-16T12:00:26;38.00;62.00
37340;DHT22;23223;51.006;7.610;2022-08-16T12:02:51;38.10;58.40
37340;DHT22;23223;51.006;7.610;2022-08-16T12:05:17;38.20;57.60
37340;DHT22;23223;51.006;7.610;2022-08-16T12:07:43;38.30;57.10
37340;DHT22;23223;51.006;7.610;2022-08-16T12:10:12;38.80;58.80
37340;DHT22;23223;51.006;7.610;2022-08-16T12:12:40;38.70;56.10
37340;DHT22;23223;51.006;7.610;2022-08-16T12:15:06;39.10;56.30
37340;DHT22;23223;51.006;7.610;2022-08-16T12:17:33;39.10;56.10
37340;DHT22;23223;51.006;7.610;2022-08-16T12:20:15;38.80;53.60
37340;DHT22;23223;51.006;7.610;2022-08-16T12:22:42;38.00;53.40
37340;DHT22;23223;51.006;7.610;2022-08-16T12:25:12;38.30;55.30
37340;DHT22;23223;51.006;7.610;2022-08-16T12:27:38;38.10;56.20
37340;DHT22;23223;51.006;7.610;2022-08-16T12:30:05;38.20;54.70
37340;DHT22;23223;51.006;7.610;2022-08-16T12:32:31;38.00;58.00
37340;DHT22;23223;51.006;7.610;2022-08-16T12:34:57;38.20;55.50
37340;DHT22;23223;51.006;7.610;2022-08-16T12:37:23;38.30;56.00
37340;DHT22;23223;51.006;7.610;2022-08-16T12:39:49;38.70;56.60
37340;DHT22;23223;51.006;7.610;2022-08-16T12:42:15;38.80;52.90
37340;DHT22;23223;51.006;7.610;2022-08-16T12:44:44;38.20;52.30
37340;DHT22;23223;51.006;7.610;2022-08-16T12:47:10;37.90;52.70
37340;DHT22;23223;51.006;7.610;2022-08-16T12:49:56;37.50;52.70
37340;DHT22;23223;51.006;7.610;2022-08-16T12:52:21;36.80;52.70
37340;DHT22;23223;51.006;7.610;2022-08-16T12:54:47;36.60;53.20
37340;DHT22;23223;51.006;7.610;2022-08-16T12:57:13;37.00;53.60
37340;DHT22;23223;51.006;7.610;2022-08-16T12:59:38;37.30;55.10
37340;DHT22;23223;51.006;7.610;2022-08-16T13:02:05;37.10;54.10
37340;DHT22;23223;51.006;7.610;2022-08-16T13:04:32;37.40;53.60
37340;DHT22;23223;51.006;7.610;2022-08-16T13:06:59;37.60;53.90
37340;DHT22;23223;51.006;7.610;2022-08-16T13:09:25;37.60;52.30
37340;DHT22;23223;51.006;7.610;2022-08-16T13:12:01;38.50;52.40
37340;DHT22;23223;51.006;7.610;2022-08-16T13:14:35;38.70;52.10
37340;DHT22;23223;51.006;7.610;2022-08-16T13:17:03;38.60;50.30
37340;DHT22;23223;51.006;7.610;2022-08-16T13:19:29;38.90;51.20
37340;DHT22;23223;51.006;7.610;2022-08-16T13:21:55;38.60;50.20
37340;DHT22;23223;51.006;7.610;2022-08-16T13:24:20;39.10;52.80
37340;DHT22;23223;51.006;7.610;2022-08-16T13:26:46;39.50;50.90
37340;DHT22;23223;51.006;7.610;2022-08-16T13:29:12;39.80;49.80
37340;DHT22;23223;51.006;7.610;2022-08-16T13:31:37;39.80;49.20
37340;DHT22;23223;51.006;7.610;2022-08-16T13:34:03;40.20;49.50
37340;DHT22;23223;51.006;7.610;2022-08-16T13:36:28;40.10;48.40
37340;DHT22;23223;51.006;7.610;2022-08-16T13:38:55;40.10;48.30
37340;DHT22;23223;51.006;7.610;2022-08-16T13:41:22;40.20;50.10
37340;DHT22;23223;51.006;7.610;2022-08-16T13:43:48;39.80;47.70
37340;DHT22;23223;51.006;7.610;2022-08-16T13:46:16;40.00;50.30
37340;DHT22;23223;51.006;7.610;2022-08-16T13:48:42;40.10;48.30
37340;DHT22;23223;51.006;7.610;2022-08-16T13:51:07;39.70;47.70
37340;DHT22;23223;51.006;7.610;2022-08-16T13:53:33;39.80;48.50
37340;DHT22;23223;51.006;7.610;2022-08-16T13:55:59;39.60;48.20
37340;DHT22;23223;51.006;7.610;2022-08-16T13:58:26;39.30;48.90
37340;DHT22;23223;51.006;7.610;2022-08-16T14:00:51;39.10;48.60
37340;DHT22;23223;51.006;7.610;2022-08-16T14:03:17;39.40;50.30
37340;DHT22;23223;51.006;7.610;2022-08-16T14:05:43;39.60;50.00
37340;DHT22;23223;51.006;7.610;2022-08-16T14:08:08;39.40;48.40
37340;DHT22;23223;51.006;7.610;2022-08-16T14:10:34;38.90;48.80
37340;DHT22;23223;51.006;7.610;2022-08-16T14:12:59;38.70;48.40
37340;DHT22;23223;51.006;7.610;2022-08-16T14:15:26;38.30;49.10
37340;DHT22;23223;51.006;7.610;2022-08-16T14:17:52;38.30;48.30
37340;DHT22;23223;51.006;7.610;2022-08-16T14:20:18;37.80;48.60
37340;DHT22;23223;51.006;7.610;2022-08-16T14:22:44;37.60;49.40
37340;DHT22;23223;51.006;7.610;2022-08-16T14:25:13;37.20;49.80
37340;DHT22;23223;51.006;7.610;2022-08-16T14:27:39;37.10;49.80
37340;DHT22;23223;51.006;7.610;2022-08-16T14:30:06;37.20;49.90
37340;DHT22;23223;51.006;7.610;2022-08-16T14:32:33;37.40;49.60
37340;DHT22;23223;51.006;7.610;2022-08-16T14:35:00;37.60;49.70
37340;DHT22;23223;51.006;7.610;2022-08-16T14:37:26;37.40;49.30
37340;DHT22;23223;51.006;7.610;2022-08-16T14:39:51;37.00;49.50
37340;DHT22;23223;51.006;7.610;2022-08-16T14:42:22;36.70;50.10
37340;DHT22;23223;51.006;7.610;2022-08-16T14:44:49;36.40;50.30
37340;DHT22;23223;51.006;7.610;2022-08-16T14:47:15;36.40;50.30
37340;DHT22;23223;51.006;7.610;2022-08-16T14:49:42;36.30;50.40
37340;DHT22;23223;51.006;7.610;2022-08-16T14:52:18;36.40;52.70
37340;DHT22;23223;51.006;7.610;2022-08-16T14:54:45;36.30;50.40
37340;DHT22;23223;51.006;7.610;2022-08-16T14:57:11;36.10;52.10
37340;DHT22;23223;51.006;7.610;2022-08-16T14:59:38;35.90;53.20
37340;DHT22;23223;51.006;7.610;2022-08-16T15:02:19;35.60;53.20
37340;DHT22;23223;51.006;7.610;2022-08-16T15:04:45;35.70;52.00
37340;DHT22;23223;51.006;7.610;2022-08-16T15:07:11;35.70;53.30
37340;DHT22;23223;51.006;7.610;2022-08-16T15:09:38;35.80;51.50
37340;DHT22;23223;51.006;7.610;2022-08-16T15:12:10;35.70;52.40
37340;DHT22;23223;51.006;7.610;2022-08-16T15:14:39;35.30;50.80
37340;DHT22;23223;51.006;7.610;2022-08-16T15:17:05;35.20;51.30
37340;DHT22;23223;51.006;7.610;2022-08-16T15:19:31;35.20;53.20
37340;DHT22;23223;51.006;7.610;2022-08-16T15:21:57;35.50;52.10
37340;DHT22;23223;51.006;7.610;2022-08-16T15:24:23;35.20;52.20
37340;DHT22;23223;51.006;7.610;2022-08-16T15:26:49;34.90;51.40
37340;DHT22;23223;51.006;7.610;2022-08-16T15:29:15;34.70;54.00
37340;DHT22;23223;51.006;7.610;2022-08-16T15:31:41;34.80;52.60